Time;durP1;ratioP1;P1;durP2;ratioP2;P2;SDS_P1;SDS_P2;PMS_P1;PMS_P2;Temp;Humidity;BMP_temperature;BMP_pressure;BME280_temperature;BME280_humidity;BME280_pressure;Samples;Min_cycle;Max_cycle;Signal;HPM_P1;HPM_P2
2022/10/04 00:00:40;;;;;;;;;;;12.80;99.90;;;;;;5111281;28;19927;-56
2022/10/04 00:03:09;;;;;;;;;;;12.90;99.90;;;;;;5102743;28;19924;-56
2022/10/04 00:05:38;;;;;;;;;;;12.70;99.90;;;;;;5102072;28;20414;-56
2022/10/04 00:08:32;;;;;;;;;;;12.70;99.90;;;;;;5103099;28;20275;-56
2022/10/04 00:11:29;;;;;;;;;;;12.70;99.90;;;;;;5092223;28;19924;-57
2022/10/04 00:13:58;;;;;;;;;;;12.60;99.90;;;;;;5097400;28;19924;-57
2022/10/04 00:16:29;;;;;;;;;;;12.60;99.90;;;;;;5106372;28;22092;-57
2022/10/04 00:19:02;;;;;;;;;;;12.60;99.90;;;;;;5098177;28;19928;-57
2022/10/04 00:21:50;;;;;;;;;;;12.60;99.90;;;;;;5108184;28;19927;-57
2022/10/04 00:24:30;;;;;;;;;;;12.60;99.90;;;;;;5073669;27;20291;-57
2022/10/04 00:27:18;;;;;;;;;;;12.60;99.90;;;;;;5097396;28;20298;-57
2022/10/04 00:30:09;;;;;;;;;;;12.60;99.90;;;;;;5074435;28;19931;-56
2022/10/04 00:32:39;;;;;;;;;;;12.60;99.90;;;;;;5072547;28;20287;-56
2022/10/04 00:35:23;;;;;;;;;;;12.70;99.90;;;;;;5105175;28;19924;-56
2022/10/04 00:37:57;;;;;;;;;;;12.60;99.90;;;;;;5110817;28;19928;-56
2022/10/04 00:40:30;;;;;;;;;;;12.70;99.90;;;;;;5093535;28;19931;-56
2022/10/04 00:42:59;;;;;;;;;;;12.70;99.90;;;;;;5115472;27;20306;-56
2022/10/04 00:45:40;;;;;;;;;;;12.70;99.90;;;;;;5133452;27;19931;-57
2022/10/04 00:48:07;;;;;;;;;;;12.80;99.90;;;;;;5112056;27;19924;-57
2022/10/04 00:50:37;;;;;;;;;;;12.80;99.90;;;;;;5112519;28;19923;-57
2022/10/04 00:53:13;;;;;;;;;;;12.80;99.90;;;;;;5109791;28;19927;-57
2022/10/04 00:55:46;;;;;;;;;;;12.80;99.90;;;;;;5093356;28;19924;-56
2022/10/04 00:58:18;;;;;;;;;;;12.80;99.90;;;;;;5117361;27;19923;-56
2022/10/04 01:00:47;;;;;;;;;;;12.70;99.90;;;;;;5132851;27;19923;-56
2022/10/04 01:03:18;;;;;;;;;;;12.70;99.90;;;;;;5077349;28;19927;-56
2022/10/04 01:05:52;;;;;;;;;;;12.60;99.90;;;;;;5090013;28;19932;-57
2022/10/04 01:08:26;;;;;;;;;;;12.60;99.90;;;;;;5091765;28;19931;-57
2022/10/04 01:10:55;;;;;;;;;;;12.60;99.90;;;;;;5108006;28;19946;-57
2022/10/04 01:13:40;;;;;;;;;;;12.50;99.90;;;;;;5117992;27;19923;-56
2022/10/04 01:16:28;;;;;;;;;;;12.60;99.90;;;;;;5097200;28;19994;-56
2022/10/04 01:19:15;;;;;;;;;;;12.60;99.90;;;;;;5103288;28;19924;-56
2022/10/04 01:21:45;;;;;;;;;;;13.20;99.90;;;;;;5110527;28;19934;-56
2022/10/04 01:24:20;;;;;;;;;;;12.70;99.90;;;;;;5124814;27;19923;-56
2022/10/04 01:26:47;;;;;;;;;;;12.60;99.90;;;;;;5114640;27;19935;-56
2022/10/04 01:29:33;;;;;;;;;;;12.60;99.90;;;;;;5093265;28;19923;-56
2022/10/04 01:32:00;;;;;;;;;;;12.60;99.90;;;;;;5109957;28;19923;-57
2022/10/04 01:34:28;;;;;;;;;;;12.50;99.90;;;;;;5114541;28;19923;-57
2022/10/04 01:36:59;;;;;;;;;;;12.50;99.90;;;;;;5114975;28;19924;-57
2022/10/04 01:39:27;;;;;;;;;;;12.50;99.90;;;;;;5114564;28;19932;-57
2022/10/04 01:41:55;;;;;;;;;;;12.50;99.90;;;;;;5090711;28;19931;-56
2022/10/04 01:44:31;;;;;;;;;;;12.50;99.90;;;;;;5094682;28;19924;-56
2022/10/04 01:47:01;;;;;;;;;;;12.50;99.90;;;;;;5107183;28;19930;-56
2022/10/04 01:49:31;;;;;;;;;;;12.70;99.90;;;;;;5096421;28;19923;-56
2022/10/04 01:52:18;;;;;;;;;;;12.80;99.90;;;;;;5096741;28;20268;-56
2022/10/04 01:54:48;;;;;;;;;;;12.90;99.90;;;;;;5078231;28;20381;-56
2022/10/04 01:57:17;;;;;;;;;;;13.00;99.90;;;;;;5114641;28;19931;-56
2022/10/04 01:59:48;;;;;;;;;;;13.10;99.90;;;;;;5114061;28;20383;-56
2022/10/04 02:02:27;;;;;;;;;;;13.10;99.90;;;;;;5113061;28;19923;-56
2022/10/04 02:04:56;;;;;;;;;;;13.10;99.90;;;;;;5114669;28;19923;-56
2022/10/04 02:07:28;;;;;;;;;;;13.20;99.90;;;;;;5114232;28;19924;-56
2022/10/04 02:09:58;;;;;;;;;;;13.20;99.90;;;;;;5096021;28;19938;-56
2022/10/04 02:12:27;;;;;;;;;;;13.20;99.90;;;;;;5114361;28;19931;-56
2022/10/04 02:14:55;;;;;;;;;;;13.20;99.90;;;;;;5114114;28;19924;-56
2022/10/04 02:17:26;;;;;;;;;;;13.30;99.90;;;;;;5096136;28;19946;-56
2022/10/04 02:19:54;;;;;;;;;;;13.20;99.90;;;;;;5114174;28;19924;-56
2022/10/04 02:22:22;;;;;;;;;;;13.30;99.90;;;;;;5113407;28;19931;-56
2022/10/04 02:24:51;;;;;;;;;;;13.20;99.90;;;;;;5114020;28;19931;-56
2022/10/04 02:27:19;;;;;;;;;;;13.20;99.90;;;;;;5114133;28;19924;-56
2022/10/04 02:29:46;;;;;;;;;;;13.20;99.90;;;;;;5095718;28;19924;-57
2022/10/04 02:35:00;;;;;;;;;;;13.20;99.90;;;;;;5113779;28;19931;-56
2022/10/04 02:37:27;;;;;;;;;;;13.20;99.90;;;;;;5113946;28;19928;-56
2022/10/04 02:39:57;;;;;;;;;;;13.20;99.90;;;;;;5113789;28;20276;-56
2022/10/04 02:42:35;;;;;;;;;;;13.20;99.90;;;;;;5114226;28;19931;-56
2022/10/04 02:45:06;;;;;;;;;;;13.30;99.90;;;;;;5113720;28;19953;-56
2022/10/04 02:47:42;;;;;;;;;;;13.30;99.90;;;;;;5112820;28;19931;-56
2022/10/04 02:50:18;;;;;;;;;;;13.30;99.90;;;;;;5113415;28;19931;-56
2022/10/04 02:52:49;;;;;;;;;;;13.40;99.90;;;;;;5095460;28;19931;-56
2022/10/04 02:55:22;;;;;;;;;;;13.40;99.90;;;;;;5113269;28;19924;-56
2022/10/04 02:57:51;;;;;;;;;;;13.40;99.90;;;;;;5112445;28;19924;-56
2022/10/04 03:00:20;;;;;;;;;;;13.50;99.90;;;;;;5113332;28;19924;-56
2022/10/04 03:03:10;;;;;;;;;;;13.50;99.90;;;;;;5113423;28;19934;-56
2022/10/04 03:05:39;;;;;;;;;;;14.50;99.90;;;;;;5113212;28;19927;-56
2022/10/04 03:08:06;;;;;;;;;;;13.50;99.90;;;;;;5095221;28;19931;-56
2022/10/04 03:10:34;;;;;;;;;;;13.50;99.90;;;;;;5095207;28;19927;-56
2022/10/04 03:13:02;;;;;;;;;;;13.50;99.90;;;;;;5113280;28;19931;-56
2022/10/04 03:15:30;;;;;;;;;;;13.50;99.90;;;;;;5113063;28;20420;-56
2022/10/04 03:17:58;;;;;;;;;;;13.60;99.90;;;;;;5113131;28;19931;-56
2022/10/04 03:20:26;;;;;;;;;;;13.60;99.90;;;;;;5094922;28;19930;-56
2022/10/04 03:22:54;;;;;;;;;;;13.60;99.90;;;;;;5095069;28;20375;-56
2022/10/04 03:25:27;;;;;;;;;;;13.60;99.90;;;;;;5078010;28;19939;-56
2022/10/04 03:27:58;;;;;;;;;;;13.60;99.90;;;;;;5095280;28;20334;-57
2022/10/04 03:30:26;;;;;;;;;;;13.60;99.90;;;;;;5113081;28;19924;-56
2022/10/04 03:32:53;;;;;;;;;;;13.70;99.90;;;;;;5112828;28;19924;-57
2022/10/04 03:35:35;;;;;;;;;;;13.70;99.90;;;;;;5108994;27;19924;-56
2022/10/04 03:38:07;;;;;;;;;;;13.70;99.90;;;;;;5133421;27;19924;-56
2022/10/04 03:40:36;;;;;;;;;;;13.70;99.90;;;;;;5133602;27;19923;-57
2022/10/04 03:43:04;;;;;;;;;;;13.70;99.90;;;;;;5133347;27;19930;-56
2022/10/04 03:45:33;;;;;;;;;;;13.70;99.90;;;;;;5114255;27;19930;-57
2022/10/04 03:48:06;;;;;;;;;;;13.70;99.90;;;;;;5098333;27;19923;-56
2022/10/04 03:50:37;;;;;;;;;;;13.80;99.90;;;;;;5133197;27;20306;-56
2022/10/04 03:53:17;;;;;;;;;;;13.70;99.90;;;;;;5133067;27;19924;-57
2022/10/04 03:55:45;;;;;;;;;;;13.70;99.90;;;;;;5133238;27;19930;-56
2022/10/04 03:58:15;;;;;;;;;;;13.70;99.90;;;;;;5133088;27;19930;-56
2022/10/04 04:00:51;;;;;;;;;;;13.70;99.90;;;;;;5133439;27;20371;-58
2022/10/04 04:03:19;;;;;;;;;;;13.70;99.90;;;;;;5133202;27;20302;-57
2022/10/04 04:05:58;;;;;;;;;;;13.70;99.90;;;;;;5133003;28;19923;-56
2022/10/04 04:08:28;;;;;;;;;;;13.70;99.90;;;;;;5132993;28;19923;-56
2022/10/04 04:10:58;;;;;;;;;;;13.60;99.90;;;;;;5097788;28;19924;-56
2022/10/04 04:13:44;;;;;;;;;;;13.60;99.90;;;;;;5132903;28;19923;-56
2022/10/04 04:16:11;;;;;;;;;;;13.60;99.90;;;;;;5114559;28;19935;-56
2022/10/04 04:18:42;;;;;;;;;;;13.70;99.90;;;;;;5132961;28;19947;-56
2022/10/04 04:21:12;;;;;;;;;;;13.60;99.90;;;;;;5114551;28;19923;-56
2022/10/04 04:23:41;;;;;;;;;;;13.70;99.90;;;;;;5132846;28;19998;-56
2022/10/04 04:26:23;;;;;;;;;;;13.70;99.90;;;;;;5133210;28;20291;-56
2022/10/04 04:28:54;;;;;;;;;;;13.70;99.90;;;;;;5132352;28;19923;-56
2022/10/04 04:31:24;;;;;;;;;;;13.70;99.90;;;;;;5114626;28;19923;-56
2022/10/04 04:33:59;;;;;;;;;;;13.70;99.90;;;;;;5114420;28;19931;-57
2022/10/04 04:36:28;;;;;;;;;;;13.70;99.90;;;;;;5132695;28;20298;-57
2022/10/04 04:42:09;;;;;;;;;;;13.70;99.90;;;;;;5132682;28;19923;-57
2022/10/04 04:44:38;;;;;;;;;;;13.70;99.90;;;;;;5132696;28;19923;-56
2022/10/04 04:47:09;;;;;;;;;;;13.70;99.90;;;;;;5126985;28;19924;-56
2022/10/04 04:49:38;;;;;;;;;;;13.60;99.90;;;;;;5087503;28;20540;-56
2022/10/04 04:52:12;;;;;;;;;;;13.60;99.90;;;;;;5070137;28;19935;-57
2022/10/04 04:54:40;;;;;;;;;;;13.60;99.90;;;;;;5088567;28;19936;-57
2022/10/04 04:57:07;;;;;;;;;;;13.60;99.90;;;;;;5090698;28;19924;-56
2022/10/04 04:59:36;;;;;;;;;;;13.60;99.90;;;;;;5117768;28;19931;-56
2022/10/04 05:02:03;;;;;;;;;;;13.60;99.90;;;;;;5081258;28;20917;-56
2022/10/04 05:04:30;;;;;;;;;;;13.60;99.90;;;;;;5110716;28;19928;-56
2022/10/04 05:07:00;;;;;;;;;;;13.50;99.90;;;;;;5106590;28;19939;-56
2022/10/04 05:09:32;;;;;;;;;;;13.50;99.90;;;;;;5070489;28;20280;-57
2022/10/04 05:12:20;;;;;;;;;;;13.50;99.90;;;;;;5089462;28;20368;-57
2022/10/04 05:14:49;;;;;;;;;;;13.50;99.90;;;;;;5106428;28;19927;-57
2022/10/04 05:17:22;;;;;;;;;;;13.50;99.90;;;;;;5109309;28;20291;-56
2022/10/04 05:19:51;;;;;;;;;;;13.50;99.90;;;;;;5073262;28;19924;-56
2022/10/04 05:22:21;;;;;;;;;;;13.50;99.90;;;;;;5091738;28;19932;-57
2022/10/04 05:24:51;;;;;;;;;;;13.50;99.90;;;;;;5109141;27;19942;-57
2022/10/04 05:27:26;;;;;;;;;;;13.50;99.90;;;;;;5110505;27;20398;-57
2022/10/04 05:30:08;;;;;;;;;;;13.50;99.90;;;;;;5091009;28;19938;-56
2022/10/04 05:32:47;;;;;;;;;;;13.50;99.90;;;;;;5088512;28;20305;-57
2022/10/04 05:35:18;;;;;;;;;;;13.50;99.90;;;;;;5114468;27;19924;-56
2022/10/04 05:37:49;;;;;;;;;;;13.50;99.90;;;;;;5105132;28;19923;-57
2022/10/04 05:40:28;;;;;;;;;;;13.50;99.90;;;;;;5111655;28;20295;-55
2022/10/04 05:42:58;;;;;;;;;;;13.50;99.90;;;;;;5076879;28;19931;-56
2022/10/04 05:45:27;;;;;;;;;;;13.50;99.90;;;;;;5111765;28;19924;-56
2022/10/04 05:47:56;;;;;;;;;;;13.50;99.90;;;;;;5090420;28;19924;-57
2022/10/04 05:50:34;;;;;;;;;;;13.50;99.90;;;;;;5110290;28;19924;-57
2022/10/04 05:53:21;;;;;;;;;;;13.60;99.90;;;;;;5108283;27;19939;-57
2022/10/04 05:55:57;;;;;;;;;;;13.60;99.90;;;;;;5093419;28;19927;-57
2022/10/04 05:58:48;;;;;;;;;;;13.60;99.90;;;;;;5105999;28;19931;-57
2022/10/04 06:01:36;;;;;;;;;;;13.60;99.90;;;;;;5075099;28;20426;-55
2022/10/04 06:04:19;;;;;;;;;;;13.60;99.90;;;;;;5052323;27;19934;-57
2022/10/04 06:06:49;;;;;;;;;;;13.60;99.90;;;;;;5071430;28;19924;-56
2022/10/04 06:09:32;;;;;;;;;;;13.60;99.90;;;;;;5108046;28;19924;-57
2022/10/04 06:12:12;;;;;;;;;;;13.60;99.90;;;;;;5091773;28;19928;-57
2022/10/04 06:14:53;;;;;;;;;;;13.70;99.90;;;;;;5109167;27;19924;-56
2022/10/04 06:17:39;;;;;;;;;;;13.70;99.90;;;;;;5126407;27;19924;-55
2022/10/04 06:20:19;;;;;;;;;;;13.70;99.90;;;;;;5087749;28;20383;-55
2022/10/04 06:22:47;;;;;;;;;;;13.70;99.90;;;;;;5083879;28;19924;-55
2022/10/04 06:25:41;;;;;;;;;;;13.70;99.90;;;;;;5089157;28;20292;-55
2022/10/04 06:28:23;;;;;;;;;;;13.70;99.90;;;;;;5085929;28;19931;-55
2022/10/04 06:31:10;;;;;;;;;;;13.70;99.90;;;;;;5089116;28;19924;-55
2022/10/04 06:33:47;;;;;;;;;;;13.70;99.90;;;;;;5089822;28;19959;-55
2022/10/04 06:36:14;;;;;;;;;;;13.70;99.90;;;;;;5070089;28;19925;-55
2022/10/04 06:38:45;;;;;;;;;;;13.70;99.90;;;;;;5076760;28;19928;-55
2022/10/04 06:41:13;;;;;;;;;;;13.70;99.90;;;;;;5085163;28;19924;-55
2022/10/04 06:43:43;;;;;;;;;;;13.70;99.90;;;;;;5073401;28;19928;-55
2022/10/04 06:46:25;;;;;;;;;;;13.70;99.90;;;;;;5079890;28;19931;-54
2022/10/04 06:49:02;;;;;;;;;;;13.70;99.90;;;;;;5075329;28;19964;-55
2022/10/04 06:51:29;;;;;;;;;;;13.60;99.90;;;;;;5076075;28;19935;-55
2022/10/04 06:53:57;;;;;;;;;;;13.60;99.90;;;;;;5087081;28;20307;-56
2022/10/04 06:56:36;;;;;;;;;;;13.60;99.90;;;;;;5072466;28;20449;-55
2022/10/04 06:59:07;;;;;;;;;;;13.50;99.90;;;;;;5080744;28;19925;-56
2022/10/04 07:01:45;;;;;;;;;;;13.50;99.90;;;;;;5070137;28;19928;-55
2022/10/04 07:04:20;;;;;;;;;;;13.50;99.90;;;;;;5067805;28;19935;-56
2022/10/04 07:07:22;;;;;;;;;;;13.50;99.90;;;;;;5066442;28;19931;-57
2022/10/04 07:10:01;;;;;;;;;;;13.50;99.90;;;;;;5070534;28;19928;-56
2022/10/04 07:12:31;;;;;;;;;;;13.60;99.90;;;;;;5071627;28;19924;-57
2022/10/04 07:15:01;;;;;;;;;;;13.60;99.90;;;;;;5083566;28;19947;-57
2022/10/04 07:17:31;;;;;;;;;;;13.60;99.90;;;;;;5085897;28;19931;-57
2022/10/04 07:20:00;;;;;;;;;;;13.70;99.90;;;;;;5089098;28;19961;-56
2022/10/04 07:22:27;;;;;;;;;;;13.70;99.90;;;;;;5101964;28;19930;-57
2022/10/04 07:25:04;;;;;;;;;;;13.80;99.90;;;;;;5089357;28;19924;-56
2022/10/04 07:27:42;;;;;;;;;;;13.80;99.90;;;;;;5078579;28;19924;-57
2022/10/04 07:30:17;;;;;;;;;;;13.90;99.90;;;;;;5102138;28;20255;-56
2022/10/04 07:32:46;;;;;;;;;;;13.90;99.90;;;;;;5099740;28;20215;-56
2022/10/04 07:35:30;;;;;;;;;;;13.90;99.90;;;;;;5087288;28;19928;-56
2022/10/04 07:38:15;;;;;;;;;;;14.00;99.90;;;;;;5098379;28;19924;-57
2022/10/04 07:40:57;;;;;;;;;;;14.00;99.90;;;;;;5089794;28;19932;-59
2022/10/04 07:43:32;;;;;;;;;;;14.00;99.90;;;;;;5093843;28;20302;-57
2022/10/04 07:46:13;;;;;;;;;;;14.00;99.90;;;;;;5109731;28;19927;-56
2022/10/04 07:48:40;;;;;;;;;;;14.00;99.90;;;;;;5091000;28;19945;-57
2022/10/04 07:51:19;;;;;;;;;;;14.10;99.90;;;;;;5105804;28;19930;-57
2022/10/04 07:54:00;;;;;;;;;;;14.10;99.90;;;;;;5110311;27;19930;-57
2022/10/04 07:56:37;;;;;;;;;;;14.10;99.90;;;;;;5089338;28;19970;-57
2022/10/04 07:59:24;;;;;;;;;;;14.10;99.90;;;;;;5104392;28;19924;-57
2022/10/04 08:02:02;;;;;;;;;;;14.10;99.90;;;;;;5108102;28;20387;-57
2022/10/04 08:04:44;;;;;;;;;;;14.20;99.90;;;;;;5120985;27;19934;-57
2022/10/04 08:07:18;;;;;;;;;;;14.20;99.90;;;;;;5090271;28;19927;-57
2022/10/04 08:09:48;;;;;;;;;;;14.20;99.90;;;;;;5090984;28;20383;-57
2022/10/04 08:12:27;;;;;;;;;;;14.30;99.90;;;;;;5106596;28;19938;-57
2022/10/04 08:15:12;;;;;;;;;;;14.40;99.90;;;;;;5105974;28;19935;-57
2022/10/04 08:17:40;;;;;;;;;;;14.50;99.90;;;;;;5075870;28;19928;-57
2022/10/04 08:20:25;;;;;;;;;;;14.50;99.90;;;;;;5087005;28;19924;-57
2022/10/04 08:22:55;;;;;;;;;;;14.60;99.90;;;;;;5100062;28;19933;-56
2022/10/04 08:25:42;;;;;;;;;;;14.60;99.90;;;;;;5100752;28;19924;-57
2022/10/04 08:31:05;;;;;;;;;;;14.80;99.90;;;;;;5109120;28;19924;-57
2022/10/04 08:33:44;;;;;;;;;;;14.80;99.90;;;;;;5108742;28;19924;-57
2022/10/04 08:36:31;;;;;;;;;;;14.90;99.90;;;;;;5089022;28;20310;-56
2022/10/04 08:38:59;;;;;;;;;;;15.00;99.90;;;;;;5103258;28;19931;-56
2022/10/04 08:41:45;;;;;;;;;;;15.00;99.90;;;;;;5089912;28;19931;-56
2022/10/04 08:44:12;;;;;;;;;;;15.00;99.90;;;;;;5096218;28;19924;-56
2022/10/04 08:46:43;;;;;;;;;;;15.00;99.90;;;;;;5105315;28;19931;-56
2022/10/04 08:49:34;;;;;;;;;;;15.00;99.90;;;;;;5098301;27;20390;-56
2022/10/04 08:52:10;;;;;;;;;;;15.00;99.90;;;;;;5096051;28;20306;-55
2022/10/04 08:55:04;;;;;;;;;;;15.00;99.90;;;;;;5098211;28;19932;-56
2022/10/04 08:57:44;;;;;;;;;;;15.00;99.90;;;;;;5104240;28;19923;-56
2022/10/04 09:00:15;;;;;;;;;;;15.00;99.90;;;;;;5111119;28;19932;-55
2022/10/04 09:02:52;;;;;;;;;;;15.00;99.90;;;;;;5109486;28;19931;-56
2022/10/04 09:05:38;;;;;;;;;;;15.00;99.90;;;;;;5092712;28;19928;-55
2022/10/04 09:08:06;;;;;;;;;;;15.00;99.90;;;;;;5112289;28;19924;-55
2022/10/04 09:10:35;;;;;;;;;;;15.00;99.90;;;;;;5105427;28;19931;-55
2022/10/04 09:13:21;;;;;;;;;;;15.00;99.90;;;;;;5095617;27;19927;-55
2022/10/04 09:15:53;;;;;;;;;;;15.00;99.90;;;;;;5088657;28;19924;-55
2022/10/04 09:18:21;;;;;;;;;;;15.00;99.90;;;;;;5101658;28;19924;-56
2022/10/04 09:21:07;;;;;;;;;;;15.00;99.90;;;;;;5112370;28;19928;-56
2022/10/04 09:23:36;;;;;;;;;;;15.10;99.90;;;;;;5092841;28;20403;-56
2022/10/04 09:26:18;;;;;;;;;;;15.10;99.90;;;;;;5083995;28;19928;-56
2022/10/04 09:28:49;;;;;;;;;;;15.20;99.90;;;;;;5105931;28;20398;-56
2022/10/04 09:31:36;;;;;;;;;;;15.20;99.90;;;;;;5077227;28;19924;-56
2022/10/04 09:34:21;;;;;;;;;;;15.20;99.90;;;;;;5086612;27;19927;-56
2022/10/04 09:37:20;;;;;;;;;;;15.20;99.90;;;;;;5125004;27;19923;-57
2022/10/04 09:40:03;;;;;;;;;;;15.10;99.90;;;;;;5066560;28;19924;-57
2022/10/04 09:42:30;;;;;;;;;;;15.10;99.90;;;;;;5092038;28;19927;-56
2022/10/04 09:45:19;;;;;;;;;;;15.00;99.90;;;;;;5128763;27;19923;-56
2022/10/04 09:48:06;;;;;;;;;;;15.10;99.90;;;;;;5075420;28;19931;-57
2022/10/04 09:50:39;;;;;;;;;;;15.10;99.90;;;;;;5111543;28;19931;-55
2022/10/04 09:53:13;;;;;;;;;;;15.10;99.90;;;;;;5110455;27;19938;-55
2022/10/04 09:55:41;;;;;;;;;;;15.10;99.90;;;;;;5122744;27;19924;-55
2022/10/04 09:58:17;;;;;;;;;;;15.20;99.90;;;;;;5099280;28;20075;-55
2022/10/04 10:00:50;;;;;;;;;;;15.20;99.90;;;;;;5096296;28;19928;-55
2022/10/04 10:03:36;;;;;;;;;;;15.20;99.90;;;;;;5110140;27;20299;-55
2022/10/04 10:06:13;;;;;;;;;;;15.20;99.90;;;;;;5128984;27;19923;-54
2022/10/04 10:08:59;;;;;;;;;;;15.20;99.90;;;;;;5111228;28;20379;-54
2022/10/04 10:14:34;;;;;;;;;;;15.20;99.90;;;;;;5108172;28;19928;-55
2022/10/04 10:17:09;;;;;;;;;;;15.20;99.90;;;;;;5110911;28;19935;-55
2022/10/04 10:19:51;;;;;;;;;;;15.20;99.90;;;;;;5080066;28;19931;-57
2022/10/04 10:22:30;;;;;;;;;;;15.20;99.90;;;;;;5072811;28;19931;-57
2022/10/04 10:25:04;;;;;;;;;;;15.30;99.90;;;;;;5099171;27;19928;-57
2022/10/04 10:27:32;;;;;;;;;;;15.30;99.90;;;;;;5104968;28;19928;-57
2022/10/04 10:29:59;;;;;;;;;;;15.30;99.90;;;;;;5091765;28;19928;-55
2022/10/04 10:32:35;;;;;;;;;;;15.40;99.90;;;;;;5109833;28;19938;-55
2022/10/04 10:35:09;;;;;;;;;;;15.40;99.90;;;;;;5111427;27;19931;-56
2022/10/04 10:37:39;;;;;;;;;;;15.40;99.90;;;;;;5095722;27;19923;-55
2022/10/04 10:40:13;;;;;;;;;;;15.50;99.90;;;;;;5129364;27;19923;-55
2022/10/04 10:42:57;;;;;;;;;;;15.60;99.90;;;;;;5093424;27;19924;-55
2022/10/04 10:45:37;;;;;;;;;;;15.60;99.90;;;;;;5090182;28;20319;-55
2022/10/04 10:48:09;;;;;;;;;;;15.70;99.90;;;;;;5097354;28;19931;-55
2022/10/04 10:50:59;;;;;;;;;;;15.90;99.90;;;;;;5110304;28;19924;-57
2022/10/04 10:53:35;;;;;;;;;;;15.80;99.90;;;;;;5113074;27;19924;-56
2022/10/04 10:56:07;;;;;;;;;;;15.90;99.90;;;;;;5124190;27;19935;-56
2022/10/04 10:58:53;;;;;;;;;;;16.00;99.90;;;;;;5102174;28;19947;-55
2022/10/04 11:01:45;;;;;;;;;;;16.00;99.90;;;;;;5089658;28;19924;-55
2022/10/04 11:04:37;;;;;;;;;;;16.10;99.90;;;;;;5074131;27;19930;-55
2022/10/04 11:07:25;;;;;;;;;;;16.10;99.90;;;;;;5108848;28;19923;-57
2022/10/04 11:10:05;;;;;;;;;;;16.10;99.90;;;;;;5107958;28;19931;-57
2022/10/04 11:12:39;;;;;;;;;;;16.10;99.90;;;;;;5096068;28;19928;-57
2022/10/04 11:15:25;;;;;;;;;;;16.10;99.90;;;;;;5091879;28;19924;-57
2022/10/04 11:18:11;;;;;;;;;;;16.20;99.90;;;;;;5095191;28;19934;-57
2022/10/04 11:20:48;;;;;;;;;;;16.20;99.90;;;;;;5091414;28;20497;-57
2022/10/04 11:23:34;;;;;;;;;;;16.20;99.90;;;;;;5092676;27;20420;-55
2022/10/04 11:26:14;;;;;;;;;;;16.20;99.90;;;;;;5125103;27;19931;-55
2022/10/04 11:28:47;;;;;;;;;;;16.20;99.90;;;;;;5100633;28;19928;-56
2022/10/04 11:31:31;;;;;;;;;;;16.10;99.90;;;;;;5108505;28;19931;-55
2022/10/04 11:34:01;;;;;;;;;;;16.10;99.90;;;;;;5117602;27;19924;-56
2022/10/04 11:36:55;;;;;;;;;;;16.10;99.90;;;;;;5112421;27;19928;-56
2022/10/04 11:39:23;;;;;;;;;;;16.10;99.90;;;;;;5076879;28;19924;-56
2022/10/04 11:41:59;;;;;;;;;;;16.20;99.90;;;;;;5099109;28;20399;-56
2022/10/04 11:44:40;;;;;;;;;;;16.20;99.90;;;;;;5087598;28;20771;-56
2022/10/04 11:47:27;;;;;;;;;;;16.20;99.90;;;;;;5105722;28;20306;-56
2022/10/04 11:49:55;;;;;;;;;;;16.30;99.90;;;;;;5109190;28;19924;-56
2022/10/04 11:52:28;;;;;;;;;;;16.30;99.90;;;;;;5106928;28;19924;-57
2022/10/04 11:55:19;;;;;;;;;;;16.30;99.90;;;;;;5125308;27;19923;-57
2022/10/04 11:58:01;;;;;;;;;;;16.40;99.90;;;;;;5108329;27;19924;-58
2022/10/04 12:01:01;;;;;;;;;;;16.50;99.90;;;;;;5109255;28;19932;-58
2022/10/04 12:03:31;;;;;;;;;;;16.50;99.90;;;;;;5052256;28;19931;-58
2022/10/04 12:06:17;;;;;;;;;;;16.60;99.90;;;;;;5116073;27;19927;-57
2022/10/04 12:08:52;;;;;;;;;;;16.60;99.90;;;;;;5090677;28;19928;-58
2022/10/04 12:11:20;;;;;;;;;;;16.70;99.90;;;;;;5093086;28;20412;-57
2022/10/04 12:13:49;;;;;;;;;;;16.80;99.90;;;;;;5094971;28;19931;-57
2022/10/04 12:16:32;;;;;;;;;;;16.80;99.90;;;;;;5074358;28;19924;-58
2022/10/04 12:19:14;;;;;;;;;;;16.90;99.90;;;;;;5109090;28;20371;-57
2022/10/04 12:21:49;;;;;;;;;;;16.90;99.90;;;;;;5078290;28;20418;-58
2022/10/04 12:24:32;;;;;;;;;;;16.90;99.90;;;;;;5107359;28;19949;-57
2022/10/04 12:26:59;;;;;;;;;;;16.90;99.90;;;;;;5096318;28;19925;-57
2022/10/04 12:29:40;;;;;;;;;;;16.90;99.90;;;;;;5095528;28;19943;-57
2022/10/04 12:32:15;;;;;;;;;;;16.90;99.90;;;;;;5100483;28;19924;-59
2022/10/04 12:34:45;;;;;;;;;;;16.90;99.90;;;;;;5111595;27;19927;-57
2022/10/04 12:37:22;;;;;;;;;;;16.90;99.90;;;;;;5076572;28;19931;-57
2022/10/04 12:40:01;;;;;;;;;;;16.90;99.90;;;;;;5112241;28;19924;-57
2022/10/04 12:42:32;;;;;;;;;;;17.00;99.90;;;;;;5104711;28;20427;-57
2022/10/04 12:45:18;;;;;;;;;;;17.10;99.90;;;;;;5111426;27;19928;-57
2022/10/04 12:48:01;;;;;;;;;;;17.10;99.90;;;;;;5114291;27;20171;-57
2022/10/04 12:50:34;;;;;;;;;;;17.20;99.90;;;;;;5103346;28;19939;-57
2022/10/04 12:53:13;;;;;;;;;;;17.20;99.90;;;;;;5112416;28;20295;-58
2022/10/04 12:56:01;;;;;;;;;;;17.20;99.90;;;;;;5112472;28;20375;-58
2022/10/04 12:58:42;;;;;;;;;;;17.20;99.90;;;;;;5093232;28;19924;-57
2022/10/04 13:01:14;;;;;;;;;;;17.30;99.90;;;;;;5110195;28;19924;-57
2022/10/04 13:04:01;;;;;;;;;;;17.30;99.90;;;;;;5111430;28;19931;-58
2022/10/04 13:06:47;;;;;;;;;;;17.30;99.90;;;;;;5114173;27;19928;-57
2022/10/04 13:09:18;;;;;;;;;;;17.40;99.90;;;;;;5111255;28;19924;-58
2022/10/04 13:12:00;;;;;;;;;;;17.40;99.90;;;;;;5093115;28;19930;-57
2022/10/04 13:14:48;;;;;;;;;;;17.40;99.90;;;;;;5103495;28;19923;-57
2022/10/04 13:17:18;;;;;;;;;;;17.30;99.90;;;;;;5112091;28;19924;-57
2022/10/04 13:20:01;;;;;;;;;;;17.30;99.90;;;;;;5112226;28;19923;-58
2022/10/04 13:22:37;;;;;;;;;;;17.30;99.90;;;;;;5111146;28;19934;-57
2022/10/04 13:25:35;;;;;;;;;;;17.20;99.90;;;;;;5123287;27;20318;-57
2022/10/04 13:28:04;;;;;;;;;;;17.20;99.90;;;;;;5107278;28;19924;-57
2022/10/04 13:30:37;;;;;;;;;;;17.20;99.90;;;;;;5088229;28;19927;-57
2022/10/04 13:33:23;;;;;;;;;;;17.20;99.90;;;;;;5090700;28;19931;-57
2022/10/04 13:35:50;;;;;;;;;;;17.20;99.90;;;;;;5128790;27;19923;-57
2022/10/04 13:38:18;;;;;;;;;;;17.10;99.90;;;;;;5092986;28;19930;-57
2022/10/04 13:40:54;;;;;;;;;;;17.00;99.90;;;;;;5111060;28;19928;-57
2022/10/04 13:43:27;;;;;;;;;;;17.10;99.90;;;;;;5099196;28;19928;-58
2022/10/04 13:46:11;;;;;;;;;;;17.00;99.90;;;;;;5080698;28;19951;-57
2022/10/04 13:48:52;;;;;;;;;;;17.00;99.90;;;;;;5103261;28;19935;-57
2022/10/04 13:51:25;;;;;;;;;;;16.90;99.90;;;;;;5111558;28;20280;-57
2022/10/04 13:56:51;;;;;;;;;;;16.90;99.90;;;;;;5124437;27;20297;-57
2022/10/04 13:59:28;;;;;;;;;;;16.90;99.90;;;;;;5092752;28;19924;-57
2022/10/04 14:02:20;;;;;;;;;;;16.90;99.90;;;;;;5103719;28;19927;-57
2022/10/04 14:04:50;;;;;;;;;;;16.80;99.90;;;;;;5107779;27;20477;-56
2022/10/04 14:07:36;;;;;;;;;;;16.80;99.90;;;;;;5108416;27;19924;-58
2022/10/04 14:10:33;;;;;;;;;;;16.80;99.90;;;;;;5128821;27;19923;-57
2022/10/04 14:13:23;;;;;;;;;;;16.80;99.90;;;;;;5105279;27;19931;-57
2022/10/04 14:16:00;;;;;;;;;;;16.80;99.90;;;;;;5105078;28;19927;-57
2022/10/04 14:18:43;;;;;;;;;;;16.80;99.90;;;;;;5109641;28;20382;-57
2022/10/04 14:21:16;;;;;;;;;;;16.80;99.90;;;;;;5111083;28;20319;-57
2022/10/04 14:24:01;;;;;;;;;;;16.80;99.90;;;;;;5116060;27;20370;-57
2022/10/04 14:26:44;;;;;;;;;;;16.80;99.90;;;;;;5131584;27;19931;-57
2022/10/04 14:29:27;;;;;;;;;;;16.80;99.90;;;;;;5093732;28;19930;-57
2022/10/04 14:32:19;;;;;;;;;;;16.80;99.90;;;;;;5110883;28;19923;-57
2022/10/04 14:34:54;;;;;;;;;;;16.80;99.90;;;;;;5116388;27;20417;-57
2022/10/04 14:37:36;;;;;;;;;;;16.80;99.90;;;;;;5109701;28;19935;-57
2022/10/04 14:40:22;;;;;;;;;;;16.90;99.90;;;;;;5109688;28;19931;-57
2022/10/04 14:43:08;;;;;;;;;;;16.80;99.90;;;;;;5089815;28;20295;-57
2022/10/04 14:45:54;;;;;;;;;;;16.70;99.90;;;;;;5105852;28;19930;-57
2022/10/04 14:48:40;;;;;;;;;;;16.60;99.90;;;;;;5086618;28;19939;-57
2022/10/04 14:51:14;;;;;;;;;;;16.50;99.90;;;;;;5089870;28;19924;-57
2022/10/04 14:54:05;;;;;;;;;;;16.40;99.90;;;;;;5108319;28;20287;-57
2022/10/04 14:56:38;;;;;;;;;;;16.30;99.90;;;;;;5100528;28;19930;-57
2022/10/04 14:59:09;;;;;;;;;;;16.20;99.90;;;;;;5109204;28;20256;-57
2022/10/04 15:01:37;;;;;;;;;;;16.20;99.90;;;;;;5110295;28;19924;-58
2022/10/04 15:04:10;;;;;;;;;;;16.20;99.90;;;;;;5109590;27;20310;-57
2022/10/04 15:06:39;;;;;;;;;;;16.10;99.90;;;;;;5089324;28;19935;-56
2022/10/04 15:09:06;;;;;;;;;;;16.10;99.90;;;;;;5098674;28;20786;-56
2022/10/04 15:11:43;;;;;;;;;;;16.10;99.90;;;;;;5108851;28;20363;-57
2022/10/04 15:14:33;;;;;;;;;;;16.10;99.90;;;;;;5117317;27;20298;-56
2022/10/04 15:17:02;;;;;;;;;;;16.10;99.90;;;;;;5129664;27;19946;-57
2022/10/04 15:19:48;;;;;;;;;;;16.00;99.90;;;;;;5109986;27;19923;-57
2022/10/04 15:22:36;;;;;;;;;;;16.00;99.90;;;;;;5103131;28;19939;-57